| time (UTC) | temp F | wind direction | speed knots | gust knots | rain 1hr in | rain 24hr in | rain mn in | humidity % | barometer mb |
| 20260507074556 | 39 | 263 | 3.5 | 9.6 | 0.00 | 0.00 | 0.00 | 58 | 1007.9 |
| 20260507073101 | 39 | 283 | 1.7 | 11.3 | 0.00 | 0.00 | 0.00 | 58 | 1008.0 |
| 20260507071558 | 40 | 213 | 4.3 | 10.4 | 0.00 | 0.00 | 0.00 | 57 | 1008.1 |
| 20260507070100 | 40 | 215 | 3.5 | 13.0 | 0.00 | 0.00 | 0.00 | 57 | 1008.1 |
| 20260507064554 | 40 | 225 | 3.5 | 8.7 | 0.00 | 0.00 | 0.00 | 56 | 1008.0 |
| 20260507063053 | 40 | 252 | 2.6 | 7.0 | 0.00 | 0.00 | 0.00 | 55 | 1008.1 |
| 20260507061558 | 41 | 280 | 2.6 | 7.8 | 0.00 | 0.00 | 0.00 | 54 | 1008.1 |
| 20260507060058 | 41 | 205 | 1.7 | 7.8 | 0.00 | 0.00 | 0.00 | 54 | 1008.0 |
| 20260507054552 | 41 | 247 | 1.7 | 6.1 | 0.00 | 0.00 | 0.00 | 53 | 1008.4 |
| 20260507053057 | 41 | 299 | 3.5 | 10.4 | 0.00 | 0.00 | 0.00 | 53 | 1008.3 |
| 20260507051555 | 41 | 258 | 4.3 | 10.4 | 0.00 | 0.00 | 0.00 | 52 | 1008.4 |
| 20260507050058 | 42 | 270 | 3.5 | 9.6 | 0.00 | 0.00 | 0.00 | 52 | 1008.3 |
| 20260507044606 | 42 | 226 | 2.6 | 10.4 | 0.00 | 0.00 | 0.00 | 52 | 1008.4 |
| 20260507043059 | 42 | 242 | 2.6 | 11.3 | 0.00 | 0.00 | 0.00 | 51 | 1008.3 |
| 20260507041559 | 42 | 223 | 3.5 | 7.0 | 0.00 | 0.00 | 0.00 | 50 | 1008.3 |
| 20260507040054 | 43 | 269 | 3.5 | 7.0 | 0.00 | 0.00 | 0.00 | 50 | 1008.4 |
| 20260507034606 | 44 | 230 | 2.6 | 10.4 | 0.00 | 0.00 | 0.00 | 48 | 1008.4 |
| 20260507033059 | 44 | 240 | 3.5 | 9.6 | 0.00 | 0.00 | 0.00 | 47 | 1008.4 |
| 20260507031555 | 45 | 232 | 1.7 | 10.4 | 0.00 | 0.00 | 0.00 | 45 | 1008.3 |
| 20260507024600 | 47 | 229 | 2.6 | 12.2 | 0.00 | 0.00 | 0.00 | 44 | 1008.1 |
| 20260507023056 | 48 | 248 | 3.5 | 7.8 | 0.00 | 0.00 | 0.00 | 45 | 1008.1 |
| 20260507021557 | 48 | 188 | 3.5 | 7.8 | 0.00 | 0.00 | 0.00 | 45 | 1007.9 |
| 20260507020055 | 48 | 232 | 2.6 | 6.1 | 0.00 | 0.00 | 0.00 | 46 | 1008.0 |
| 20260507014556 | 49 | 242 | 1.7 | 6.1 | 0.00 | 0.00 | 0.00 | 46 | 1007.9 |
| 20260507013101 | 49 | 207 | 1.7 | 6.1 | 0.00 | 0.00 | 0.00 | 46 | 1007.9 |
| 20260507011556 | 49 | 250 | 1.7 | 6.1 | 0.00 | 0.00 | 0.00 | 47 | 1007.9 |
| 20260507010054 | 49 | 243 | 1.7 | 4.3 | 0.00 | 0.00 | 0.00 | 47 | 1007.8 |
| 20260507004556 | 50 | 233 | 1.7 | 7.0 | 0.00 | 0.00 | 0.00 | 46 | 1007.9 |
| 20260507003055 | 50 | 209 | 2.6 | 7.8 | 0.00 | 0.00 | 0.00 | 45 | 1007.7 |
| 20260507001554 | 50 | 249 | 1.7 | 7.8 | 0.00 | 0.00 | 0.00 | 45 | 1007.6 |
| 20260507000054 | 51 | 257 | 2.6 | 8.7 | 0.00 | 0.00 | 0.00 | 44 | 1007.5 |
| 20260506234600 | 51 | 243 | 0.9 | 4.3 | 0.00 | 0.00 | 0.00 | 44 | 1007.4 |
| 20260506233056 | 51 | 225 | 3.5 | 7.0 | 0.00 | 0.00 | 0.00 | 43 | 1007.3 |
| 20260506231554 | 52 | 239 | 2.6 | 7.8 | 0.00 | 0.00 | 0.00 | 43 | 1007.2 |
| 20260506230056 | 52 | 252 | 3.5 | 8.7 | 0.00 | 0.00 | 0.00 | 42 | 1007.2 |
| 20260506224607 | 52 | 240 | 2.6 | 9.6 | 0.00 | 0.00 | 0.00 | 42 | 1007.2 |
| 20260506223052 | 52 | 213 | 2.6 | 7.8 | 0.00 | 0.00 | 0.00 | 41 | 1007.1 |
| 20260506221556 | 52 | 249 | 3.5 | 9.6 | 0.00 | 0.00 | 0.00 | 41 | 1007.2 |
| 20260506220057 | 53 | 297 | 4.3 | 9.6 | 0.00 | 0.00 | 0.00 | 41 | 1007.2 |
| 20260506214607 | 53 | 254 | 4.3 | 8.7 | 0.00 | 0.00 | 0.00 | 41 | 1007.2 |
| 20260506213057 | 53 | 225 | 2.6 | 7.8 | 0.00 | 0.00 | 0.00 | 41 | 1007.3 |
| 20260506211555 | 53 | 268 | 3.5 | 10.4 | 0.00 | 0.00 | 0.00 | 41 | 1007.2 |
| 20260506210058 | 54 | 279 | 2.6 | 8.7 | 0.00 | 0.00 | 0.00 | 42 | 1007.2 |
| 20260506204559 | 54 | 231 | 2.6 | 7.0 | 0.00 | 0.00 | 0.00 | 41 | 1007.2 |
| 20260506203056 | 54 | 296 | 1.7 | 8.7 | 0.00 | 0.00 | 0.00 | 40 | 1007.2 |
| 20260506201556 | 54 | 327 | 2.6 | 8.7 | 0.00 | 0.00 | 0.00 | 40 | 1007.1 |
| 20260506200054 | 54 | 229 | 3.5 | 7.0 | 0.00 | 0.00 | 0.00 | 40 | 1007.1 |
| 20260506194604 | 55 | 250 | 2.6 | 10.4 | 0.00 | 0.00 | 0.00 | 41 | 1007.1 |
| 20260506193059 | 54 | 240 | 2.6 | 10.4 | 0.00 | 0.00 | 0.00 | 40 | 1007.1 |
| 20260506191553 | 55 | 252 | 2.6 | 7.8 | 0.00 | 0.00 | 0.00 | 39 | 1007.0 |
| 20260506190052 | 55 | 267 | 2.6 | 7.8 | 0.00 | 0.00 | 0.00 | 39 | 1007.1 |
| 20260506184556 | 54 | 269 | 0.0 | 3.5 | 0.00 | 0.00 | 0.00 | 42 | 1007.1 |
| 20260506183100 | 54 | 219 | 1.7 | 5.2 | 0.00 | 0.00 | 0.00 | 41 | 1007.4 |
| 20260506181555 | 53 | 263 | 1.7 | 6.1 | 0.00 | 0.00 | 0.00 | 41 | 1007.5 |
| 20260506180055 | 53 | 52 | 0.9 | 6.1 | 0.00 | 0.00 | 0.00 | 43 | 1007.4 |
| 20260506174553 | 52 | 247 | 1.7 | 5.2 | 0.00 | 0.00 | 0.00 | 43 | 1007.6 |
| 20260506173054 | 52 | 96 | 1.7 | 5.2 | 0.00 | 0.00 | 0.00 | 42 | 1007.6 |
| 20260506171559 | 51 | 30 | 3.5 | 7.8 | 0.00 | 0.00 | 0.00 | 43 | 1007.7 |
| 20260506170059 | 53 | 298 | 1.7 | 7.0 | 0.00 | 0.00 | 0.00 | 41 | 1007.8 |
| 20260506164600 | 52 | 165 | 3.5 | 9.6 | 0.00 | 0.00 | 0.00 | 41 | 1007.8 |
| 20260506163103 | 54 | 155 | 2.6 | 7.8 | 0.00 | 0.00 | 0.00 | 43 | 1007.8 |
| 20260506161604 | 52 | 0 | 2.6 | 7.8 | 0.00 | 0.00 | 0.00 | 43 | 1008.0 |
| 20260506160053 | 52 | 223 | 2.6 | 6.1 | 0.00 | 0.00 | 0.00 | 42 | 1007.8 |
| 20260506154612 | 49 | 0 | 0.9 | 5.2 | 0.00 | 0.00 | 0.00 | 52 | 1008.1 |
| 20260506153055 | 48 | 82 | 1.7 | 5.2 | 0.00 | 0.00 | 0.00 | 52 | 1008.3 |
| 20260506151555 | 48 | 55 | 1.7 | 4.3 | 0.00 | 0.00 | 0.00 | 53 | 1008.4 |
| 20260506150056 | 47 | 47 | 0.9 | 4.3 | 0.00 | 0.00 | 0.00 | 54 | 1008.4 |
| 20260506144602 | 48 | 0 | 0.0 | 4.3 | 0.00 | 0.03 | 0.00 | 52 | 1008.6 |
| 20260506143055 | 47 | 297 | 0.9 | 6.1 | 0.00 | 0.03 | 0.00 | 52 | 1008.8 |
| 20260506141557 | 47 | 271 | 2.6 | 7.8 | 0.00 | 0.03 | 0.00 | 54 | 1008.9 |
| 20260506140112 | 46 | 288 | 1.7 | 5.2 | 0.00 | 0.03 | 0.00 | 57 | 1008.8 |
| 20260506134558 | 45 | 278 | 2.6 | 6.1 | 0.00 | 0.03 | 0.00 | 59 | 1008.7 |
| 20260506133057 | 44 | 294 | 2.6 | 7.8 | 0.00 | 0.03 | 0.00 | 60 | 1008.7 |
| 20260506131556 | 43 | 265 | 1.7 | 5.2 | 0.00 | 0.03 | 0.00 | 64 | 1008.6 |
| 20260506130059 | 41 | 287 | 1.7 | 6.1 | 0.00 | 0.03 | 0.00 | 65 | 1008.7 |
| 20260506124557 | 41 | 216 | 0.9 | 2.6 | 0.00 | 0.03 | 0.00 | 68 | 1008.7 |
| 20260506123054 | 40 | 274 | 0.0 | 2.6 | 0.00 | 0.03 | 0.00 | 76 | 1008.7 |
| 20260506121555 | 39 | 0 | 0.0 | 1.7 | 0.00 | 0.03 | 0.00 | 81 | 1008.5 |
| 20260506120052 | 38 | 0 | 0.0 | 0.9 | 0.00 | 0.03 | 0.00 | 81 | 1008.3 |
| 20260506114600 | 37 | 0 | 0.0 | 0.0 | 0.00 | 0.03 | 0.00 | 81 | 1008.4 |
| 20260506113059 | 36 | 0 | 0.0 | 0.0 | 0.00 | 0.03 | 0.00 | 81 | 1008.2 |
| 20260506111602 | 34 | 0 | 0.0 | 0.0 | 0.00 | 0.03 | 0.00 | 82 | 1008.3 |
| 20260506110053 | 34 | 0 | 0.0 | 0.0 | 0.00 | 0.03 | 0.00 | 83 | 1008.3 |
| 20260506104558 | 33 | 0 | 0.0 | 0.0 | 0.00 | 0.03 | 0.00 | 84 | 1008.1 |
| 20260506103059 | 32 | 0 | 0.0 | 0.0 | 0.00 | 0.03 | 0.00 | 84 | 1008.1 |
| 20260506101553 | 32 | 0 | 0.0 | 0.0 | 0.00 | 0.03 | 0.00 | 83 | 1008.1 |
| 20260506100100 | 32 | 0 | 0.0 | 0.0 | 0.00 | 0.03 | 0.00 | 83 | 1008.0 |
| 20260506094555 | 31 | 0 | 0.0 | 0.0 | 0.00 | 0.03 | 0.00 | 83 | 1008.2 |
| 20260506093054 | 31 | 0 | 0.0 | 0.0 | 0.00 | 0.03 | 0.00 | 84 | 1008.1 |
| 20260506091601 | 31 | 0 | 0.0 | 0.0 | 0.00 | 0.03 | 0.00 | 84 | 1008.5 |
| 20260506090058 | 31 | 0 | 0.0 | 0.0 | 0.00 | 0.03 | 0.00 | 84 | 1008.1 |
| 20260506084554 | 31 | 0 | 0.0 | 0.0 | 0.00 | 0.03 | 0.00 | 83 | 1008.1 |
| 20260506083058 | 32 | 0 | 0.0 | 0.0 | 0.00 | 0.03 | 0.00 | 82 | 1008.0 |
| 20260506081559 | 32 | 0 | 0.0 | 0.0 | 0.00 | 0.03 | 0.00 | 81 | 1008.0 |